• Join FlightAware (Why Join?)
  • Login
  • US Flag 
05:50PM EST


 

Airport Tracker/Info


-or-


 

Live Flight TrackerFlight Track Log ✈ 9Y-BGI ✈ 19-Apr-2013 ✈ MKJS / MBJ - MKJP / KIN

Flight Track Log - Related Links

Times and Time Zones

All times are in EDT time to prevent confusion due to time zone crossing. See the 9Y-BGI flight status page for this flight to view local times or setup timezone preferences in your user account.

Time Position Orientation Groundspeed Altitude Reporting Facility
EDT Latitude Longitude Course Direction KTS MPH feet Rate Location/Type
10:38AM 18.3146 -77.5362 118° Southeast  Level Estimated
10:39AM 18.2766 -77.4608 118° Southeast  Level Estimated
10:40AM 18.2387 -77.3855 118° Southeast  Level Estimated
10:41AM 18.2007 -77.3102 118° Southeast  Level Estimated
10:42AM 18.1627 -77.2350 118° Southeast  Level Estimated
10:43AM 18.1246 -77.1598 118° Southeast  Level Estimated
10:44AM 18.0866 -77.0846 118° Southeast  Level Estimated
10:45AM 18.0485 -77.0095 118° Southeast  Level Estimated
10:46AM 18.0103 -76.9344 118° Southeast  Level Estimated
10:47AM 17.9722 -76.8593 118° Southeast  Level Estimated
10:48AM 17.9357 -76.7875 118° Southeast  Level Estimated
10:49AM 17.9357 -76.7875 180° South  Level Estimated
10:50AM 17.9357 -76.7875 180° South  Level Estimated
10:51AM 17.9357 -76.7875 180° South  Level Estimated
10:52AM 17.9357 -76.7875 180° South  Level Estimated
10:53AM 17.9357 -76.7875 180° South  Level Estimated
10:54AM 17.9357 -76.7875 180° South  Level Estimated
10:55AM 17.9357 -76.7875 180° South  Level Estimated
10:56AM 17.9357 -76.7875 180° South  Level Estimated
10:57AM 17.9357 -76.7875 180° South  Level Estimated
10:58AM 17.9357 -76.7875 180° South  Level Estimated
10:59AM 17.9357 -76.7875 180° South  Level Estimated